createdAt,value
2018-06-02T00:00:45.242Z,68
2018-06-02T00:06:14.578Z,68
2018-06-02T00:11:44.918Z,68
2018-06-02T00:17:14.252Z,69
2018-06-02T00:22:43.578Z,69
2018-06-02T00:28:13.919Z,69
2018-06-02T00:33:44.209Z,69
2018-06-02T00:39:14.594Z,69
2018-06-02T00:44:44.816Z,69
2018-06-02T00:50:14.137Z,69
2018-06-02T00:55:43.507Z,70
2018-06-02T01:01:12.701Z,70
2018-06-02T01:06:41.992Z,70
2018-06-02T01:12:12.299Z,70
2018-06-02T01:17:41.593Z,70
2018-06-02T01:23:11.878Z,70
2018-06-02T01:28:42.157Z,70
2018-06-02T01:34:11.688Z,70
2018-06-02T01:39:40.956Z,70
2018-06-02T01:45:09.962Z,70
2018-06-02T01:50:40.270Z,71
2018-06-02T01:56:09.498Z,71
2018-06-02T02:01:39.745Z,71
2018-06-02T02:07:08.978Z,71
2018-06-02T02:12:39.214Z,71
2018-06-02T02:18:09.456Z,71
2018-06-02T02:23:39.667Z,71
2018-06-02T02:29:09.878Z,71
2018-06-02T02:34:39.190Z,71
2018-06-02T02:40:08.292Z,71
2018-06-02T02:45:38.562Z,72
2018-06-02T02:51:08.693Z,72
2018-06-02T02:56:37.883Z,72
2018-06-02T03:02:07.101Z,72
2018-06-02T03:07:37.307Z,72
2018-06-02T03:13:07.539Z,72
2018-06-02T03:18:36.635Z,72
2018-06-02T03:24:05.859Z,72
2018-06-02T03:29:36.099Z,72
2018-06-02T03:35:05.269Z,72
2018-06-02T03:40:34.683Z,72
2018-06-02T03:46:03.642Z,72
2018-06-02T03:51:33.837Z,72
2018-06-02T03:57:03.119Z,72
2018-06-02T04:02:33.330Z,72
2018-06-02T04:08:02.550Z,73
2018-06-02T04:13:32.797Z,73
2018-06-02T04:19:02.955Z,73
2018-06-02T04:24:32.221Z,73
2018-06-02T04:30:01.460Z,73
2018-06-02T04:35:30.637Z,73
2018-06-02T04:41:00.851Z,73
2018-06-02T04:46:30.115Z,73
2018-06-02T04:51:59.315Z,73
2018-06-02T04:57:28.591Z,73
2018-06-02T05:02:58.800Z,73
2018-06-02T05:08:28.101Z,73
2018-06-02T05:13:58.406Z,73
2018-06-02T05:19:28.566Z,73
2018-06-02T05:24:57.824Z,73
2018-06-02T05:30:27.141Z,73
2018-06-02T05:35:56.461Z,73
2018-06-02T05:41:26.680Z,73
2018-06-02T05:46:57.118Z,73
2018-06-02T05:52:27.365Z,73
2018-06-02T05:57:57.644Z,73
2018-06-02T06:03:27.126Z,73
2018-06-02T06:08:57.301Z,73
2018-06-02T06:14:27.652Z,73
2018-06-02T06:19:57.076Z,73
2018-06-02T06:25:26.518Z,73
2018-06-02T06:30:55.835Z,73
2018-06-02T06:36:26.246Z,73
2018-06-02T06:41:55.674Z,73
2018-06-02T06:47:25.093Z,72
2018-06-02T06:52:54.551Z,72
2018-06-02T06:58:24.050Z,72
2018-06-02T07:03:53.578Z,72
2018-06-02T07:09:23.026Z,72
2018-06-02T07:14:53.867Z,71
2018-06-02T07:20:24.154Z,71
2018-06-02T07:25:54.750Z,71
2018-06-02T07:31:24.383Z,70
2018-06-02T07:36:54.092Z,70
2018-06-02T07:42:24.733Z,70
2018-06-02T07:47:54.380Z,70
2018-06-02T07:53:24.122Z,69
2018-06-02T07:58:53.764Z,69
2018-06-02T08:04:24.413Z,69
2018-06-02T08:09:54.392Z,69
2018-06-02T08:15:24.860Z,68
2018-06-02T08:20:54.615Z,68
2018-06-02T08:26:24.328Z,68
2018-06-02T08:31:54.095Z,67
2018-06-02T08:37:24.832Z,67
2018-06-02T08:42:54.537Z,67
2018-06-02T08:48:25.458Z,66
2018-06-02T08:53:56.090Z,66
2018-06-02T08:59:25.974Z,65
2018-06-02T09:04:55.679Z,65
2018-06-02T09:15:57.542Z,64
2018-06-02T09:26:56.972Z,63
2018-06-02T09:32:27.879Z,63
2018-06-02T09:37:57.707Z,63
2018-06-02T09:43:28.645Z,62
2018-06-02T09:48:59.511Z,62
2018-06-02T09:54:30.375Z,62
2018-06-02T10:00:01.336Z,61
2018-06-02T10:05:31.374Z,61
2018-06-02T10:11:01.216Z,61
2018-06-02T10:16:32.159Z,61
2018-06-02T10:22:03.222Z,60
2018-06-02T10:27:34.103Z,60
2018-06-02T10:33:04.066Z,60
2018-06-02T10:38:35.133Z,59
2018-06-02T10:44:05.742Z,59
2018-06-02T10:49:35.163Z,59
2018-06-02T10:55:06.204Z,58
2018-06-02T11:00:36.303Z,58
2018-06-02T11:06:06.392Z,58
2018-06-02T11:11:36.510Z,58
2018-06-02T11:17:07.656Z,57
2018-06-02T11:22:38.805Z,57
2018-06-02T11:28:09.834Z,57
2018-06-02T11:33:39.955Z,57
2018-06-02T11:39:10.099Z,56
2018-06-02T11:44:40.255Z,56
2018-06-02T11:50:10.377Z,56
2018-06-02T11:55:40.583Z,56
2018-06-02T12:01:10.819Z,56
2018-06-02T12:06:40.713Z,55
2018-06-02T12:12:10.888Z,55
2018-06-02T12:17:41.097Z,55
2018-06-02T12:23:11.245Z,56
2018-06-02T12:28:41.342Z,56
2018-06-02T12:34:12.451Z,57
2018-06-02T12:39:43.498Z,57
2018-06-02T12:45:13.628Z,58
2018-06-02T12:50:43.789Z,58
2018-06-02T12:56:13.894Z,58
2018-06-02T13:01:44.975Z,59
2018-06-02T13:07:15.109Z,58
2018-06-02T13:12:45.228Z,58
2018-06-02T13:18:16.509Z,58
2018-06-02T13:23:47.611Z,59
2018-06-02T13:29:17.771Z,59
2018-06-02T13:34:48.976Z,60
2018-06-02T13:40:19.170Z,60
2018-06-02T13:45:50.293Z,60
2018-06-02T13:51:20.462Z,61
2018-06-02T13:56:51.538Z,61
2018-06-02T14:02:21.653Z,61
2018-06-02T14:07:51.712Z,61
2018-06-02T14:13:21.815Z,61
2018-06-02T14:18:51.963Z,62
2018-06-02T14:24:22.018Z,62
2018-06-02T14:29:51.969Z,62
2018-06-02T14:35:23.006Z,62
2018-06-02T14:40:54.116Z,62
2018-06-02T14:46:25.076Z,62
2018-06-02T14:51:56.078Z,62
2018-06-02T14:57:26.074Z,63
2018-06-02T15:02:57.098Z,63
2018-06-02T15:08:27.090Z,63
2018-06-02T15:13:57.983Z,63
2018-06-02T15:19:27.984Z,63
2018-06-02T15:24:57.932Z,63
2018-06-02T15:30:28.841Z,63
2018-06-02T15:35:58.785Z,63
2018-06-02T15:41:28.714Z,63
2018-06-02T15:46:58.650Z,64
2018-06-02T15:52:28.601Z,63
2018-06-02T15:57:59.551Z,63
2018-06-02T16:03:29.521Z,63
2018-06-02T16:09:00.332Z,63
2018-06-02T16:14:31.372Z,63
2018-06-02T16:20:01.507Z,63
2018-06-02T16:25:31.058Z,63
2018-06-02T16:31:00.995Z,63
2018-06-02T16:36:30.864Z,63
2018-06-02T16:42:00.767Z,63
2018-06-02T16:47:30.635Z,62
2018-06-02T16:53:01.547Z,62
2018-06-02T16:58:32.602Z,62
2018-06-02T17:04:02.379Z,63
2018-06-02T17:09:33.144Z,64
2018-06-02T17:15:03.000Z,64
2018-06-02T17:20:32.665Z,63
2018-06-02T17:26:03.498Z,64
2018-06-02T17:31:33.268Z,64
2018-06-02T17:31:33.936Z,64
2018-06-02T17:37:03.031Z,64
2018-06-02T17:42:32.786Z,65
2018-06-02T17:48:03.554Z,65
2018-06-02T17:53:34.603Z,65
2018-06-02T17:59:05.040Z,65
2018-06-02T18:04:35.982Z,65
2018-06-02T18:10:05.489Z,66
2018-06-02T18:15:35.223Z,66
2018-06-02T18:21:05.858Z,66
2018-06-02T18:26:35.545Z,66
2018-06-02T18:32:05.129Z,66
2018-06-02T18:37:34.818Z,67
2018-06-02T18:43:04.450Z,67
2018-06-02T18:48:35.006Z,67
2018-06-02T18:54:05.628Z,68
2018-06-02T18:59:36.234Z,67
2018-06-02T19:05:05.654Z,67
2018-06-02T19:10:36.166Z,68
2018-06-02T19:16:05.899Z,68
2018-06-02T19:21:35.168Z,68
2018-06-02T19:27:05.722Z,68
2018-06-02T19:32:36.187Z,68
2018-06-02T19:38:06.696Z,68
2018-06-02T19:43:37.256Z,68
2018-06-02T19:49:07.725Z,68
2018-06-02T19:54:38.190Z,69
2018-06-02T20:00:07.733Z,69
2018-06-02T20:05:37.166Z,69
2018-06-02T20:11:06.588Z,69
2018-06-02T20:16:37.105Z,69
2018-06-02T20:22:06.579Z,69
2018-06-02T20:27:37.368Z,69
2018-06-02T20:33:07.574Z,69
2018-06-02T20:38:38.131Z,70
2018-06-02T20:44:08.884Z,70
2018-06-02T20:49:37.788Z,70
2018-06-02T20:55:08.263Z,70
2018-06-02T21:00:37.719Z,70
2018-06-02T21:06:07.117Z,70
2018-06-02T21:11:37.462Z,70
2018-06-02T21:17:07.821Z,70
2018-06-02T21:33:38.075Z,71
2018-06-02T21:39:08.391Z,71
2018-06-02T21:44:37.841Z,71
2018-06-02T21:50:08.291Z,71
2018-06-02T21:55:37.726Z,71
2018-06-02T22:01:07.917Z,71
2018-06-02T22:06:37.345Z,71
2018-06-02T22:12:07.665Z,71
2018-06-02T22:17:38.110Z,72
2018-06-02T22:23:08.359Z,72
2018-06-02T22:28:37.736Z,72
2018-06-02T22:34:08.091Z,72
2018-06-02T22:39:37.537Z,72
2018-06-02T22:45:06.799Z,72
2018-06-02T22:50:36.344Z,72
2018-06-02T22:56:05.684Z,72
2018-06-02T23:01:34.879Z,72
2018-06-02T23:07:05.222Z,72
2018-06-02T23:12:34.646Z,72
2018-06-02T23:18:03.941Z,72
2018-06-02T23:23:33.286Z,73
2018-06-02T23:29:03.671Z,73
2018-06-02T23:34:32.981Z,73
2018-06-02T23:40:02.301Z,74
2018-06-02T23:45:32.585Z,74
2018-06-02T23:51:02.826Z,74
2018-06-02T23:56:33.141Z,74
